sensor_id;sensor_type;location;lat;lon;timestamp;P1;durP1;ratioP1;P2;durP2;ratioP2
34136;SDS011;20414;50.860;4.382;2023-01-28T00:01:05;0.47;;;0.47;;
34136;SDS011;20414;50.860;4.382;2023-01-28T00:03:32;0.90;;;0.73;;
34136;SDS011;20414;50.860;4.382;2023-01-28T00:06:06;0.60;;;0.55;;
34136;SDS011;20414;50.860;4.382;2023-01-28T00:08:34;0.85;;;0.60;;
34136;SDS011;20414;50.860;4.382;2023-01-28T00:11:00;0.93;;;0.60;;
34136;SDS011;20414;50.860;4.382;2023-01-28T00:13:27;0.80;;;0.80;;
34136;SDS011;20414;50.860;4.382;2023-01-28T00:15:57;0.70;;;0.60;;
34136;SDS011;20414;50.860;4.382;2023-01-28T00:18:24;0.63;;;0.60;;
34136;SDS011;20414;50.860;4.382;2023-01-28T00:20:57;0.75;;;0.75;;
34136;SDS011;20414;50.860;4.382;2023-01-28T00:23:35;0.80;;;0.70;;
34136;SDS011;20414;50.860;4.382;2023-01-28T00:26:02;0.95;;;0.80;;
34136;SDS011;20414;50.860;4.382;2023-01-28T00:28:30;0.68;;;0.60;;
34136;SDS011;20414;50.860;4.382;2023-01-28T00:30:56;0.90;;;0.75;;
34136;SDS011;20414;50.860;4.382;2023-01-28T00:33:22;0.90;;;0.70;;
34136;SDS011;20414;50.860;4.382;2023-01-28T00:35:56;0.60;;;0.60;;
34136;SDS011;20414;50.860;4.382;2023-01-28T00:38:23;0.60;;;0.60;;
34136;SDS011;20414;50.860;4.382;2023-01-28T00:40:48;0.60;;;0.60;;
34136;SDS011;20414;50.860;4.382;2023-01-28T00:43:14;0.90;;;0.70;;
34136;SDS011;20414;50.860;4.382;2023-01-28T00:45:40;0.68;;;0.68;;
34136;SDS011;20414;50.860;4.382;2023-01-28T00:48:05;0.60;;;0.60;;
34136;SDS011;20414;50.860;4.382;2023-01-28T00:50:32;0.70;;;0.70;;
34136;SDS011;20414;50.860;4.382;2023-01-28T00:52:58;0.60;;;0.57;;
34136;SDS011;20414;50.860;4.382;2023-01-28T00:55:23;0.55;;;0.55;;
34136;SDS011;20414;50.860;4.382;2023-01-28T00:57:49;0.90;;;0.68;;
34136;SDS011;20414;50.860;4.382;2023-01-28T01:00:15;0.80;;;0.80;;
34136;SDS011;20414;50.860;4.382;2023-01-28T01:02:44;0.77;;;0.75;;
34136;SDS011;20414;50.860;4.382;2023-01-28T01:05:10;0.70;;;0.60;;
34136;SDS011;20414;50.860;4.382;2023-01-28T01:07:35;0.70;;;0.70;;
34136;SDS011;20414;50.860;4.382;2023-01-28T01:10:09;0.80;;;0.70;;
34136;SDS011;20414;50.860;4.382;2023-01-28T01:12:36;0.60;;;0.60;;
34136;SDS011;20414;50.860;4.382;2023-01-28T01:15:04;0.77;;;0.73;;
34136;SDS011;20414;50.860;4.382;2023-01-28T01:17:34;0.63;;;0.63;;
34136;SDS011;20414;50.860;4.382;2023-01-28T01:20:06;0.70;;;0.70;;
34136;SDS011;20414;50.860;4.382;2023-01-28T01:22:34;0.73;;;0.70;;
34136;SDS011;20414;50.860;4.382;2023-01-28T01:25:01;0.98;;;0.85;;
34136;SDS011;20414;50.860;4.382;2023-01-28T01:27:28;0.60;;;0.60;;
34136;SDS011;20414;50.860;4.382;2023-01-28T01:29:54;0.98;;;0.70;;
34136;SDS011;20414;50.860;4.382;2023-01-28T01:32:20;0.70;;;0.60;;
34136;SDS011;20414;50.860;4.382;2023-01-28T01:34:46;0.95;;;0.70;;
34136;SDS011;20414;50.860;4.382;2023-01-28T01:37:12;0.80;;;0.70;;
34136;SDS011;20414;50.860;4.382;2023-01-28T01:39:38;0.50;;;0.50;;
34136;SDS011;20414;50.860;4.382;2023-01-28T01:42:03;1.27;;;0.80;;
34136;SDS011;20414;50.860;4.382;2023-01-28T01:47:24;0.60;;;0.60;;
34136;SDS011;20414;50.860;4.382;2023-01-28T01:50:14;0.70;;;0.70;;
34136;SDS011;20414;50.860;4.382;2023-01-28T01:52:44;0.77;;;0.65;;
34136;SDS011;20414;50.860;4.382;2023-01-28T01:55:13;0.60;;;0.60;;
34136;SDS011;20414;50.860;4.382;2023-01-28T01:57:43;0.98;;;0.70;;
34136;SDS011;20414;50.860;4.382;2023-01-28T02:00:10;0.50;;;0.50;;
34136;SDS011;20414;50.860;4.382;2023-01-28T02:02:44;0.80;;;0.70;;
34136;SDS011;20414;50.860;4.382;2023-01-28T02:05:12;0.70;;;0.70;;
34136;SDS011;20414;50.860;4.382;2023-01-28T02:07:40;0.70;;;0.70;;
34136;SDS011;20414;50.860;4.382;2023-01-28T02:10:09;0.63;;;0.60;;
34136;SDS011;20414;50.860;4.382;2023-01-28T02:12:37;0.60;;;0.60;;
34136;SDS011;20414;50.860;4.382;2023-01-28T02:15:08;1.05;;;0.80;;
34136;SDS011;20414;50.860;4.382;2023-01-28T02:17:40;0.75;;;0.65;;
34136;SDS011;20414;50.860;4.382;2023-01-28T02:20:07;0.52;;;0.50;;
34136;SDS011;20414;50.860;4.382;2023-01-28T02:22:42;0.95;;;0.85;;
34136;SDS011;20414;50.860;4.382;2023-01-28T02:25:22;0.77;;;0.60;;
34136;SDS011;20414;50.860;4.382;2023-01-28T02:30:54;0.70;;;0.70;;
34136;SDS011;20414;50.860;4.382;2023-01-28T02:33:28;0.50;;;0.50;;
34136;SDS011;20414;50.860;4.382;2023-01-28T02:36:09;0.60;;;0.60;;
34136;SDS011;20414;50.860;4.382;2023-01-28T02:38:45;0.60;;;0.60;;
34136;SDS011;20414;50.860;4.382;2023-01-28T02:41:24;0.60;;;0.60;;
34136;SDS011;20414;50.860;4.382;2023-01-28T02:43:55;0.80;;;0.68;;
34136;SDS011;20414;50.860;4.382;2023-01-28T02:46:32;1.00;;;0.73;;
34136;SDS011;20414;50.860;4.382;2023-01-28T02:55:13;0.80;;;0.70;;
34136;SDS011;20414;50.860;4.382;2023-01-28T02:57:37;0.60;;;0.60;;
34136;SDS011;20414;50.860;4.382;2023-01-28T03:02:51;0.90;;;0.80;;
34136;SDS011;20414;50.860;4.382;2023-01-28T03:07:49;0.88;;;0.82;;
34136;SDS011;20414;50.860;4.382;2023-01-28T03:10:17;0.80;;;0.80;;
34136;SDS011;20414;50.860;4.382;2023-01-28T03:12:45;0.70;;;0.70;;
34136;SDS011;20414;50.860;4.382;2023-01-28T03:15:36;0.60;;;0.60;;
34136;SDS011;20414;50.860;4.382;2023-01-28T03:18:29;0.73;;;0.68;;
34136;SDS011;20414;50.860;4.382;2023-01-28T03:21:21;0.50;;;0.50;;
34136;SDS011;20414;50.860;4.382;2023-01-28T03:24:20;0.82;;;0.70;;
34136;SDS011;20414;50.860;4.382;2023-01-28T03:27:29;1.65;;;0.90;;
34136;SDS011;20414;50.860;4.382;2023-01-28T03:30:24;0.80;;;0.80;;
34136;SDS011;20414;50.860;4.382;2023-01-28T03:33:18;1.00;;;0.90;;
34136;SDS011;20414;50.860;4.382;2023-01-28T03:36:03;0.57;;;0.50;;
34136;SDS011;20414;50.860;4.382;2023-01-28T03:38:49;0.70;;;0.70;;
34136;SDS011;20414;50.860;4.382;2023-01-28T03:41:24;1.27;;;1.08;;
34136;SDS011;20414;50.860;4.382;2023-01-28T03:43:51;0.88;;;0.88;;
34136;SDS011;20414;50.860;4.382;2023-01-28T03:46:17;0.88;;;0.73;;
34136;SDS011;20414;50.860;4.382;2023-01-28T03:48:43;0.95;;;0.90;;
34136;SDS011;20414;50.860;4.382;2023-01-28T03:51:09;0.93;;;0.75;;
34136;SDS011;20414;50.860;4.382;2023-01-28T03:53:36;0.80;;;0.70;;
34136;SDS011;20414;50.860;4.382;2023-01-28T03:56:02;0.60;;;0.60;;
34136;SDS011;20414;50.860;4.382;2023-01-28T03:58:28;0.63;;;0.63;;
34136;SDS011;20414;50.860;4.382;2023-01-28T04:01:10;1.00;;;0.85;;
34136;SDS011;20414;50.860;4.382;2023-01-28T04:03:36;0.85;;;0.77;;
34136;SDS011;20414;50.860;4.382;2023-01-28T04:06:06;0.70;;;0.70;;
34136;SDS011;20414;50.860;4.382;2023-01-28T04:08:33;0.70;;;0.70;;
34136;SDS011;20414;50.860;4.382;2023-01-28T04:10:59;0.60;;;0.60;;
34136;SDS011;20414;50.860;4.382;2023-01-28T04:16:05;0.95;;;0.70;;
34136;SDS011;20414;50.860;4.382;2023-01-28T04:18:32;0.70;;;0.70;;
34136;SDS011;20414;50.860;4.382;2023-01-28T04:20:58;0.50;;;0.50;;
34136;SDS011;20414;50.860;4.382;2023-01-28T04:23:23;0.80;;;0.77;;
34136;SDS011;20414;50.860;4.382;2023-01-28T04:25:49;0.70;;;0.70;;
34136;SDS011;20414;50.860;4.382;2023-01-28T04:28:15;1.00;;;0.90;;
34136;SDS011;20414;50.860;4.382;2023-01-28T04:30:41;0.70;;;0.70;;
34136;SDS011;20414;50.860;4.382;2023-01-28T04:33:07;1.48;;;1.15;;
34136;SDS011;20414;50.860;4.382;2023-01-28T04:35:33;1.10;;;1.00;;
34136;SDS011;20414;50.860;4.382;2023-01-28T04:37:58;1.00;;;0.90;;
34136;SDS011;20414;50.860;4.382;2023-01-28T04:40:24;0.80;;;0.70;;
34136;SDS011;20414;50.860;4.382;2023-01-28T04:42:53;1.40;;;0.88;;
34136;SDS011;20414;50.860;4.382;2023-01-28T04:45:20;0.88;;;0.73;;
34136;SDS011;20414;50.860;4.382;2023-01-28T04:47:46;0.80;;;0.80;;
34136;SDS011;20414;50.860;4.382;2023-01-28T04:50:13;0.73;;;0.73;;
34136;SDS011;20414;50.860;4.382;2023-01-28T04:52:38;0.60;;;0.60;;
34136;SDS011;20414;50.860;4.382;2023-01-28T04:55:04;1.05;;;0.90;;
34136;SDS011;20414;50.860;4.382;2023-01-28T04:57:31;0.70;;;0.70;;
34136;SDS011;20414;50.860;4.382;2023-01-28T04:59:56;0.80;;;0.80;;
34136;SDS011;20414;50.860;4.382;2023-01-28T05:02:22;0.82;;;0.82;;
34136;SDS011;20414;50.860;4.382;2023-01-28T05:04:48;0.70;;;0.70;;
34136;SDS011;20414;50.860;4.382;2023-01-28T05:07:14;0.60;;;0.60;;
34136;SDS011;20414;50.860;4.382;2023-01-28T05:09:39;1.00;;;0.82;;
34136;SDS011;20414;50.860;4.382;2023-01-28T05:12:05;0.60;;;0.60;;
34136;SDS011;20414;50.860;4.382;2023-01-28T05:14:32;0.80;;;0.80;;
34136;SDS011;20414;50.860;4.382;2023-01-28T05:16:57;0.73;;;0.73;;
34136;SDS011;20414;50.860;4.382;2023-01-28T05:19:23;0.70;;;0.68;;
34136;SDS011;20414;50.860;4.382;2023-01-28T05:21:49;0.68;;;0.68;;
34136;SDS011;20414;50.860;4.382;2023-01-28T05:24:15;0.70;;;0.70;;
34136;SDS011;20414;50.860;4.382;2023-01-28T05:26:40;0.70;;;0.70;;
34136;SDS011;20414;50.860;4.382;2023-01-28T05:29:06;0.70;;;0.70;;
34136;SDS011;20414;50.860;4.382;2023-01-28T05:31:32;0.75;;;0.75;;
34136;SDS011;20414;50.860;4.382;2023-01-28T05:33:58;0.70;;;0.70;;
34136;SDS011;20414;50.860;4.382;2023-01-28T05:36:26;0.80;;;0.70;;
34136;SDS011;20414;50.860;4.382;2023-01-28T05:38:51;0.70;;;0.70;;
34136;SDS011;20414;50.860;4.382;2023-01-28T05:41:17;0.80;;;0.73;;
34136;SDS011;20414;50.860;4.382;2023-01-28T05:43:43;1.10;;;1.00;;
34136;SDS011;20414;50.860;4.382;2023-01-28T05:46:09;0.90;;;0.80;;
34136;SDS011;20414;50.860;4.382;2023-01-28T05:48:35;0.70;;;0.70;;
34136;SDS011;20414;50.860;4.382;2023-01-28T05:51:00;1.15;;;0.80;;
34136;SDS011;20414;50.860;4.382;2023-01-28T05:53:26;0.65;;;0.65;;
34136;SDS011;20414;50.860;4.382;2023-01-28T05:55:52;1.10;;;1.00;;
34136;SDS011;20414;50.860;4.382;2023-01-28T05:58:18;0.70;;;0.70;;
34136;SDS011;20414;50.860;4.382;2023-01-28T06:00:44;0.98;;;0.80;;
34136;SDS011;20414;50.860;4.382;2023-01-28T06:03:13;0.65;;;0.65;;
34136;SDS011;20414;50.860;4.382;2023-01-28T06:05:38;0.93;;;0.82;;
34136;SDS011;20414;50.860;4.382;2023-01-28T06:08:04;0.90;;;0.80;;
34136;SDS011;20414;50.860;4.382;2023-01-28T06:10:30;0.80;;;0.70;;
34136;SDS011;20414;50.860;4.382;2023-01-28T06:12:56;0.77;;;0.77;;
34136;SDS011;20414;50.860;4.382;2023-01-28T06:15:22;0.80;;;0.80;;
34136;SDS011;20414;50.860;4.382;2023-01-28T06:17:47;0.77;;;0.70;;
34136;SDS011;20414;50.860;4.382;2023-01-28T06:20:13;1.80;;;0.80;;
34136;SDS011;20414;50.860;4.382;2023-01-28T06:22:41;0.73;;;0.70;;
34136;SDS011;20414;50.860;4.382;2023-01-28T06:25:07;0.73;;;0.68;;
34136;SDS011;20414;50.860;4.382;2023-01-28T06:27:33;0.57;;;0.57;;
34136;SDS011;20414;50.860;4.382;2023-01-28T06:29:59;0.80;;;0.80;;
34136;SDS011;20414;50.860;4.382;2023-01-28T06:32:25;0.75;;;0.70;;
34136;SDS011;20414;50.860;4.382;2023-01-28T06:34:51;0.80;;;0.80;;
34136;SDS011;20414;50.860;4.382;2023-01-28T06:37:17;0.88;;;0.80;;
34136;SDS011;20414;50.860;4.382;2023-01-28T06:39:43;0.65;;;0.65;;
34136;SDS011;20414;50.860;4.382;2023-01-28T06:42:08;0.90;;;0.90;;
34136;SDS011;20414;50.860;4.382;2023-01-28T06:44:34;0.90;;;0.75;;
34136;SDS011;20414;50.860;4.382;2023-01-28T06:47:00;0.70;;;0.60;;
34136;SDS011;20414;50.860;4.382;2023-01-28T06:49:25;0.70;;;0.70;;
34136;SDS011;20414;50.860;4.382;2023-01-28T06:51:51;0.60;;;0.60;;
34136;SDS011;20414;50.860;4.382;2023-01-28T06:54:17;0.80;;;0.80;;
34136;SDS011;20414;50.860;4.382;2023-01-28T06:56:42;0.73;;;0.73;;
34136;SDS011;20414;50.860;4.382;2023-01-28T06:59:08;0.80;;;0.80;;
34136;SDS011;20414;50.860;4.382;2023-01-28T07:01:34;0.70;;;0.70;;
34136;SDS011;20414;50.860;4.382;2023-01-28T07:03:59;0.70;;;0.70;;
34136;SDS011;20414;50.860;4.382;2023-01-28T07:08:55;1.33;;;0.80;;
34136;SDS011;20414;50.860;4.382;2023-01-28T07:11:20;0.73;;;0.73;;
34136;SDS011;20414;50.860;4.382;2023-01-28T07:13:47;0.70;;;0.70;;
34136;SDS011;20414;50.860;4.382;2023-01-28T07:16:13;0.80;;;0.80;;
34136;SDS011;20414;50.860;4.382;2023-01-28T07:18:38;0.77;;;0.77;;
34136;SDS011;20414;50.860;4.382;2023-01-28T07:21:04;1.00;;;0.90;;
34136;SDS011;20414;50.860;4.382;2023-01-28T07:23:30;1.02;;;1.00;;
34136;SDS011;20414;50.860;4.382;2023-01-28T07:26:00;0.98;;;0.90;;
34136;SDS011;20414;50.860;4.382;2023-01-28T07:28:26;0.70;;;0.70;;
34136;SDS011;20414;50.860;4.382;2023-01-28T07:30:52;0.80;;;0.80;;
34136;SDS011;20414;50.860;4.382;2023-01-28T07:33:18;0.70;;;0.70;;
34136;SDS011;20414;50.860;4.382;2023-01-28T07:35:44;0.73;;;0.73;;
34136;SDS011;20414;50.860;4.382;2023-01-28T07:38:11;1.02;;;0.90;;
34136;SDS011;20414;50.860;4.382;2023-01-28T07:40:37;0.70;;;0.70;;
34136;SDS011;20414;50.860;4.382;2023-01-28T07:43:03;0.70;;;0.70;;
34136;SDS011;20414;50.860;4.382;2023-01-28T07:45:32;0.77;;;0.68;;
34136;SDS011;20414;50.860;4.382;2023-01-28T07:47:59;0.80;;;0.77;;
34136;SDS011;20414;50.860;4.382;2023-01-28T07:50:29;0.70;;;0.70;;
34136;SDS011;20414;50.860;4.382;2023-01-28T07:52:56;0.80;;;0.80;;
34136;SDS011;20414;50.860;4.382;2023-01-28T07:55:23;0.93;;;0.88;;
34136;SDS011;20414;50.860;4.382;2023-01-28T07:57:56;0.70;;;0.70;;
34136;SDS011;20414;50.860;4.382;2023-01-28T08:00:24;0.77;;;0.70;;
34136;SDS011;20414;50.860;4.382;2023-01-28T08:02:55;0.75;;;0.75;;
34136;SDS011;20414;50.860;4.382;2023-01-28T08:07:47;0.65;;;0.65;;
34136;SDS011;20414;50.860;4.382;2023-01-28T08:10:16;1.02;;;0.77;;
34136;SDS011;20414;50.860;4.382;2023-01-28T08:12:53;1.20;;;1.10;;
34136;SDS011;20414;50.860;4.382;2023-01-28T08:15:20;1.08;;;0.98;;
34136;SDS011;20414;50.860;4.382;2023-01-28T08:17:46;0.80;;;0.73;;
34136;SDS011;20414;50.860;4.382;2023-01-28T08:20:12;1.08;;;0.88;;
34136;SDS011;20414;50.860;4.382;2023-01-28T08:22:38;1.15;;;1.00;;
34136;SDS011;20414;50.860;4.382;2023-01-28T08:25:04;0.93;;;0.90;;
34136;SDS011;20414;50.860;4.382;2023-01-28T08:27:30;0.98;;;0.88;;
34136;SDS011;20414;50.860;4.382;2023-01-28T08:29:55;1.05;;;0.95;;
34136;SDS011;20414;50.860;4.382;2023-01-28T08:32:21;0.60;;;0.60;;
34136;SDS011;20414;50.860;4.382;2023-01-28T08:34:47;1.05;;;0.95;;
34136;SDS011;20414;50.860;4.382;2023-01-28T08:37:12;1.13;;;1.02;;
34136;SDS011;20414;50.860;4.382;2023-01-28T08:39:38;1.25;;;0.90;;
34136;SDS011;20414;50.860;4.382;2023-01-28T08:42:04;1.23;;;1.02;;
34136;SDS011;20414;50.860;4.382;2023-01-28T08:44:31;0.90;;;0.80;;
34136;SDS011;20414;50.860;4.382;2023-01-28T08:46:57;0.90;;;0.90;;
34136;SDS011;20414;50.860;4.382;2023-01-28T08:49:23;0.75;;;0.75;;
34136;SDS011;20414;50.860;4.382;2023-01-28T08:51:49;1.27;;;0.90;;
34136;SDS011;20414;50.860;4.382;2023-01-28T08:54:14;0.77;;;0.77;;
34136;SDS011;20414;50.860;4.382;2023-01-28T08:56:40;0.80;;;0.80;;
34136;SDS011;20414;50.860;4.382;2023-01-28T08:59:09;0.70;;;0.70;;
34136;SDS011;20414;50.860;4.382;2023-01-28T09:01:35;0.80;;;0.80;;
34136;SDS011;20414;50.860;4.382;2023-01-28T09:04:01;0.80;;;0.80;;
34136;SDS011;20414;50.860;4.382;2023-01-28T09:06:26;1.20;;;0.90;;
34136;SDS011;20414;50.860;4.382;2023-01-28T09:08:55;0.85;;;0.85;;
34136;SDS011;20414;50.860;4.382;2023-01-28T09:11:21;0.97;;;0.90;;
34136;SDS011;20414;50.860;4.382;2023-01-28T09:13:47;0.80;;;0.75;;
34136;SDS011;20414;50.860;4.382;2023-01-28T09:16:12;0.70;;;0.70;;
34136;SDS011;20414;50.860;4.382;2023-01-28T09:18:38;0.93;;;0.90;;
34136;SDS011;20414;50.860;4.382;2023-01-28T09:21:05;0.88;;;0.88;;
34136;SDS011;20414;50.860;4.382;2023-01-28T09:23:35;0.75;;;0.73;;
34136;SDS011;20414;50.860;4.382;2023-01-28T09:26:02;0.98;;;0.90;;
34136;SDS011;20414;50.860;4.382;2023-01-28T09:28:29;0.88;;;0.88;;
34136;SDS011;20414;50.860;4.382;2023-01-28T09:31:05;1.00;;;0.90;;
34136;SDS011;20414;50.860;4.382;2023-01-28T09:33:33;0.90;;;0.90;;
34136;SDS011;20414;50.860;4.382;2023-01-28T09:36:00;1.00;;;0.95;;
34136;SDS011;20414;50.860;4.382;2023-01-28T09:38:28;0.88;;;0.88;;
34136;SDS011;20414;50.860;4.382;2023-01-28T09:40:55;0.90;;;0.90;;
34136;SDS011;20414;50.860;4.382;2023-01-28T09:46:03;0.90;;;0.88;;
34136;SDS011;20414;50.860;4.382;2023-01-28T09:48:33;0.75;;;0.75;;
34136;SDS011;20414;50.860;4.382;2023-01-28T09:51:30;0.93;;;0.82;;
34136;SDS011;20414;50.860;4.382;2023-01-28T09:54:21;0.90;;;0.80;;
34136;SDS011;20414;50.860;4.382;2023-01-28T09:56:52;0.98;;;0.88;;
34136;SDS011;20414;50.860;4.382;2023-01-28T09:59:30;1.10;;;1.00;;
34136;SDS011;20414;50.860;4.382;2023-01-28T10:04:49;1.35;;;1.10;;
34136;SDS011;20414;50.860;4.382;2023-01-28T10:10:26;0.80;;;0.80;;
34136;SDS011;20414;50.860;4.382;2023-01-28T10:18:11;0.95;;;0.90;;
34136;SDS011;20414;50.860;4.382;2023-01-28T10:20:42;0.85;;;0.85;;
34136;SDS011;20414;50.860;4.382;2023-01-28T10:23:28;1.08;;;0.90;;
34136;SDS011;20414;50.860;4.382;2023-01-28T10:26:20;0.80;;;0.80;;
34136;SDS011;20414;50.860;4.382;2023-01-28T10:28:57;1.00;;;0.90;;
34136;SDS011;20414;50.860;4.382;2023-01-28T10:31:31;1.00;;;0.90;;
34136;SDS011;20414;50.860;4.382;2023-01-28T10:34:03;1.20;;;1.10;;
34136;SDS011;20414;50.860;4.382;2023-01-28T10:36:29;1.00;;;0.90;;
34136;SDS011;20414;50.860;4.382;2023-01-28T10:38:54;0.90;;;0.90;;
34136;SDS011;20414;50.860;4.382;2023-01-28T10:41:21;0.90;;;0.90;;
34136;SDS011;20414;50.860;4.382;2023-01-28T10:43:47;0.80;;;0.80;;
34136;SDS011;20414;50.860;4.382;2023-01-28T10:46:15;1.10;;;1.00;;
34136;SDS011;20414;50.860;4.382;2023-01-28T10:51:36;0.75;;;0.75;;
34136;SDS011;20414;50.860;4.382;2023-01-28T10:56:54;0.80;;;0.80;;
34136;SDS011;20414;50.860;4.382;2023-01-28T10:59:26;1.08;;;0.98;;
34136;SDS011;20414;50.860;4.382;2023-01-28T11:04:23;1.13;;;1.02;;
34136;SDS011;20414;50.860;4.382;2023-01-28T11:09:31;1.10;;;1.00;;
34136;SDS011;20414;50.860;4.382;2023-01-28T11:12:09;1.02;;;0.90;;
34136;SDS011;20414;50.860;4.382;2023-01-28T11:14:37;1.00;;;0.90;;
34136;SDS011;20414;50.860;4.382;2023-01-28T11:17:11;1.10;;;1.00;;
34136;SDS011;20414;50.860;4.382;2023-01-28T11:19:42;0.98;;;0.98;;
34136;SDS011;20414;50.860;4.382;2023-01-28T11:24:53;1.10;;;1.00;;
34136;SDS011;20414;50.860;4.382;2023-01-28T11:27:19;1.02;;;0.93;;
34136;SDS011;20414;50.860;4.382;2023-01-28T11:29:55;1.23;;;1.13;;
34136;SDS011;20414;50.860;4.382;2023-01-28T11:32:24;0.88;;;0.88;;
34136;SDS011;20414;50.860;4.382;2023-01-28T11:34:51;0.82;;;0.82;;
34136;SDS011;20414;50.860;4.382;2023-01-28T11:37:22;0.90;;;0.90;;
34136;SDS011;20414;50.860;4.382;2023-01-28T11:42:44;0.80;;;0.80;;
34136;SDS011;20414;50.860;4.382;2023-01-28T11:45:18;0.88;;;0.88;;
34136;SDS011;20414;50.860;4.382;2023-01-28T11:48:06;0.93;;;0.93;;
34136;SDS011;20414;50.860;4.382;2023-01-28T11:50:45;1.27;;;1.17;;
34136;SDS011;20414;50.860;4.382;2023-01-28T11:56:17;1.23;;;1.13;;
34136;SDS011;20414;50.860;4.382;2023-01-28T12:07:15;1.10;;;1.00;;
34136;SDS011;20414;50.860;4.382;2023-01-28T12:15:15;1.10;;;1.00;;
34136;SDS011;20414;50.860;4.382;2023-01-28T12:29:29;1.60;;;1.50;;
34136;SDS011;20414;50.860;4.382;2023-01-28T12:37:44;1.17;;;1.08;;
34136;SDS011;20414;50.860;4.382;2023-01-28T12:54:30;1.17;;;1.08;;
34136;SDS011;20414;50.860;4.382;2023-01-28T12:57:01;1.08;;;1.00;;
34136;SDS011;20414;50.860;4.382;2023-01-28T12:59:36;1.10;;;1.00;;
34136;SDS011;20414;50.860;4.382;2023-01-28T13:07:13;1.00;;;0.90;;
34136;SDS011;20414;50.860;4.382;2023-01-28T13:09:52;0.80;;;0.80;;
34136;SDS011;20414;50.860;4.382;2023-01-28T13:12:24;1.20;;;1.10;;
34136;SDS011;20414;50.860;4.382;2023-01-28T13:14:50;1.15;;;1.05;;
34136;SDS011;20414;50.860;4.382;2023-01-28T13:17:24;1.05;;;0.98;;
34136;SDS011;20414;50.860;4.382;2023-01-28T13:19:50;1.23;;;1.13;;
34136;SDS011;20414;50.860;4.382;2023-01-28T13:25:10;0.98;;;0.90;;
34136;SDS011;20414;50.860;4.382;2023-01-28T13:27:52;1.08;;;0.90;;
34136;SDS011;20414;50.860;4.382;2023-01-28T13:30:23;1.17;;;1.08;;
34136;SDS011;20414;50.860;4.382;2023-01-28T13:33:25;1.20;;;1.10;;
34136;SDS011;20414;50.860;4.382;2023-01-28T13:38:46;1.05;;;0.95;;
34136;SDS011;20414;50.860;4.382;2023-01-28T13:41:23;0.80;;;0.80;;
34136;SDS011;20414;50.860;4.382;2023-01-28T13:44:00;1.25;;;1.15;;
34136;SDS011;20414;50.860;4.382;2023-01-28T13:46:27;1.20;;;1.10;;
34136;SDS011;20414;50.860;4.382;2023-01-28T13:48:55;1.10;;;1.00;;
34136;SDS011;20414;50.860;4.382;2023-01-28T13:51:28;0.90;;;0.90;;
34136;SDS011;20414;50.860;4.382;2023-01-28T13:54:16;0.90;;;0.90;;
34136;SDS011;20414;50.860;4.382;2023-01-28T14:02:19;1.50;;;0.95;;
34136;SDS011;20414;50.860;4.382;2023-01-28T14:15:57;1.75;;;1.00;;
34136;SDS011;20414;50.860;4.382;2023-01-28T14:18:44;1.10;;;1.00;;
34136;SDS011;20414;50.860;4.382;2023-01-28T14:21:12;1.00;;;0.90;;
34136;SDS011;20414;50.860;4.382;2023-01-28T14:23:51;1.13;;;1.02;;
34136;SDS011;20414;50.860;4.382;2023-01-28T14:31:23;1.73;;;1.00;;
34136;SDS011;20414;50.860;4.382;2023-01-28T14:33:54;0.90;;;0.90;;
34136;SDS011;20414;50.860;4.382;2023-01-28T14:36:28;1.10;;;1.00;;
34136;SDS011;20414;50.860;4.382;2023-01-28T14:38:54;1.10;;;1.00;;
34136;SDS011;20414;50.860;4.382;2023-01-28T14:41:25;1.10;;;1.00;;
34136;SDS011;20414;50.860;4.382;2023-01-28T14:43:52;1.10;;;1.00;;
34136;SDS011;20414;50.860;4.382;2023-01-28T14:46:24;1.63;;;0.90;;
34136;SDS011;20414;50.860;4.382;2023-01-28T14:54:25;1.27;;;0.85;;
34136;SDS011;20414;50.860;4.382;2023-01-28T15:02:18;1.10;;;1.00;;
34136;SDS011;20414;50.860;4.382;2023-01-28T15:04:45;1.00;;;1.00;;
34136;SDS011;20414;50.860;4.382;2023-01-28T15:07:18;1.13;;;0.90;;
34136;SDS011;20414;50.860;4.382;2023-01-28T15:10:01;1.20;;;1.10;;
34136;SDS011;20414;50.860;4.382;2023-01-28T15:12:28;0.98;;;0.95;;
34136;SDS011;20414;50.860;4.382;2023-01-28T15:14:57;0.95;;;0.93;;
34136;SDS011;20414;50.860;4.382;2023-01-28T15:17:25;1.67;;;1.10;;
34136;SDS011;20414;50.860;4.382;2023-01-28T15:19:55;1.10;;;1.00;;
34136;SDS011;20414;50.860;4.382;2023-01-28T15:22:25;1.20;;;1.00;;
34136;SDS011;20414;50.860;4.382;2023-01-28T15:24:52;1.00;;;0.90;;
34136;SDS011;20414;50.860;4.382;2023-01-28T15:27:22;0.90;;;0.90;;
34136;SDS011;20414;50.860;4.382;2023-01-28T15:29:53;1.02;;;0.90;;
34136;SDS011;20414;50.860;4.382;2023-01-28T15:32:25;1.20;;;1.10;;
34136;SDS011;20414;50.860;4.382;2023-01-28T15:34:53;1.30;;;1.20;;
34136;SDS011;20414;50.860;4.382;2023-01-28T15:37:19;1.30;;;1.02;;
34136;SDS011;20414;50.860;4.382;2023-01-28T15:39:46;1.10;;;0.90;;
34136;SDS011;20414;50.860;4.382;2023-01-28T15:42:21;1.20;;;1.10;;
34136;SDS011;20414;50.860;4.382;2023-01-28T15:44:50;0.90;;;0.90;;
34136;SDS011;20414;50.860;4.382;2023-01-28T15:47:24;0.90;;;0.90;;
34136;SDS011;20414;50.860;4.382;2023-01-28T15:49:54;0.90;;;0.90;;
34136;SDS011;20414;50.860;4.382;2023-01-28T15:52:34;1.17;;;1.08;;
34136;SDS011;20414;50.860;4.382;2023-01-28T15:55:05;0.80;;;0.80;;
34136;SDS011;20414;50.860;4.382;2023-01-28T15:57:53;0.80;;;0.80;;
34136;SDS011;20414;50.860;4.382;2023-01-28T16:00:19;1.17;;;1.08;;
34136;SDS011;20414;50.860;4.382;2023-01-28T16:02:46;1.08;;;0.98;;
34136;SDS011;20414;50.860;4.382;2023-01-28T16:05:27;1.00;;;1.00;;
34136;SDS011;20414;50.860;4.382;2023-01-28T16:07:53;1.13;;;1.00;;
34136;SDS011;20414;50.860;4.382;2023-01-28T16:10:25;1.13;;;1.02;;
34136;SDS011;20414;50.860;4.382;2023-01-28T16:13:03;1.20;;;1.00;;
34136;SDS011;20414;50.860;4.382;2023-01-28T16:15:35;0.90;;;0.90;;
34136;SDS011;20414;50.860;4.382;2023-01-28T16:18:03;1.92;;;1.10;;
34136;SDS011;20414;50.860;4.382;2023-01-28T16:20:30;1.02;;;0.95;;
34136;SDS011;20414;50.860;4.382;2023-01-28T16:22:57;1.10;;;1.00;;
34136;SDS011;20414;50.860;4.382;2023-01-28T16:25:30;1.15;;;1.05;;
34136;SDS011;20414;50.860;4.382;2023-01-28T16:28:01;1.20;;;1.10;;
34136;SDS011;20414;50.860;4.382;2023-01-28T16:30:28;1.20;;;1.10;;
34136;SDS011;20414;50.860;4.382;2023-01-28T16:32:54;1.23;;;0.90;;
34136;SDS011;20414;50.860;4.382;2023-01-28T16:35:21;1.17;;;1.08;;
34136;SDS011;20414;50.860;4.382;2023-01-28T16:37:50;1.00;;;1.00;;
34136;SDS011;20414;50.860;4.382;2023-01-28T16:40:17;1.90;;;1.15;;
34136;SDS011;20414;50.860;4.382;2023-01-28T16:42:45;1.25;;;1.15;;
34136;SDS011;20414;50.860;4.382;2023-01-28T16:45:19;1.30;;;1.20;;
34136;SDS011;20414;50.860;4.382;2023-01-28T16:47:47;1.40;;;1.30;;
34136;SDS011;20414;50.860;4.382;2023-01-28T16:50:13;1.20;;;1.10;;
34136;SDS011;20414;50.860;4.382;2023-01-28T16:52:40;1.00;;;1.00;;
34136;SDS011;20414;50.860;4.382;2023-01-28T16:55:14;1.20;;;1.10;;
34136;SDS011;20414;50.860;4.382;2023-01-28T16:57:43;1.08;;;0.98;;
34136;SDS011;20414;50.860;4.382;2023-01-28T17:00:14;1.13;;;1.02;;
34136;SDS011;20414;50.860;4.382;2023-01-28T17:02:42;1.00;;;1.00;;
34136;SDS011;20414;50.860;4.382;2023-01-28T17:05:08;1.20;;;0.90;;
34136;SDS011;20414;50.860;4.382;2023-01-28T17:07:38;1.27;;;1.17;;
34136;SDS011;20414;50.860;4.382;2023-01-28T17:10:04;1.25;;;1.15;;
34136;SDS011;20414;50.860;4.382;2023-01-28T17:12:30;1.30;;;1.20;;
34136;SDS011;20414;50.860;4.382;2023-01-28T17:14:56;1.73;;;1.42;;
34136;SDS011;20414;50.860;4.382;2023-01-28T17:17:21;1.17;;;1.08;;
34136;SDS011;20414;50.860;4.382;2023-01-28T17:19:47;1.08;;;1.00;;
34136;SDS011;20414;50.860;4.382;2023-01-28T17:22:13;1.42;;;1.33;;
34136;SDS011;20414;50.860;4.382;2023-01-28T17:24:38;1.33;;;1.10;;
34136;SDS011;20414;50.860;4.382;2023-01-28T17:27:04;1.20;;;1.10;;
34136;SDS011;20414;50.860;4.382;2023-01-28T17:29:30;1.23;;;1.13;;